KPVD/PVD METAR and TAF weather

Enter ICAO airport designator
Station Type Date Time Source
KPVD METAR 2020/09/22 15:51 UTC NOAA

KPVD 221551Z 35013G22KT 10SM BKN300 17/M01 A3001 RMK AO2 SLP164 T01671011


Station Type Date Time Source
KPVD Decoded METAR 2020/09/22 15:51 UTC NOAA

PROVIDENCE GREEN STATE AIRPORT , RI, United States (KPVD) 41-44N 071-26W 16M
Sep 22, 2020 - 11:51 AM EDT / 2020.09.22 1551 UTC
Wind: from the N (350 degrees) at 15 MPH (13 KT) gusting to 25 MPH (22 KT):0
Visibility: 10 mile(s):0
Sky conditions: mostly cloudy
Temperature: 62.1 F (16.7 C)
Dew Point: 30.0 F (-1.1 C)
Relative Humidity: 29%
Pressure (altimeter): 30.01 in. Hg (1016 hPa)
ob: KPVD 221551Z 35013G22KT 10SM BKN300 17/M01 A3001 RMK AO2 SLP164 T01671011
cycle: 16

Station Type Date Time Source
KPVD TAF 2020/09/22 16:36 UTC NOAA

TAF
AMD KPVD 221533Z 2216/2312 35013G27KT P6SM BKN250
FM230400 33012KT P6SM FEW250
FM231000 31010G18KT P6SM SKC

Example: see airport list